Time;durP1;ratioP1;P1;durP2;ratioP2;P2;SDS_P1;SDS_P2;PMS_P1;PMS_P2;Temp;Humidity;BMP_temperature;BMP_pressure;BME280_temperature;BME280_humidity;BME280_pressure;Samples;Min_cycle;Max_cycle;Signal;HPM_P1;HPM_P2
2023/08/27 00:00:29;;;;;;;12.95;8.48;;;17.10;99.90;;;;;;5097685;28;20358;-77
2023/08/27 00:02:55;;;;;;;15.32;9.77;;;17.10;99.90;;;;;;5080589;28;20043;-78
2023/08/27 00:05:21;;;;;;;11.10;8.25;;;17.20;99.90;;;;;;5080146;28;20055;-77
2023/08/27 00:07:46;;;;;;;15.82;9.15;;;17.20;99.90;;;;;;5080594;28;20057;-77
2023/08/27 00:10:12;;;;;;;13.45;8.02;;;17.30;99.90;;;;;;5096914;28;20040;-78
2023/08/27 00:12:38;;;;;;;12.95;7.80;;;17.30;99.90;;;;;;5098440;28;20316;-79
2023/08/27 00:15:05;;;;;;;9.38;7.03;;;17.30;99.90;;;;;;5087338;28;20056;-78
2023/08/27 00:17:31;;;;;;;11.73;7.80;;;17.30;99.90;;;;;;5078907;28;20021;-78
2023/08/27 00:19:58;;;;;;;10.50;7.43;;;17.30;99.90;;;;;;5078300;28;20024;-79
2023/08/27 00:22:24;;;;;;;12.57;7.33;;;17.30;99.90;;;;;;5068326;28;20032;-76
2023/08/27 00:24:50;;;;;;;10.00;6.57;;;17.30;99.90;;;;;;5098555;28;20263;-79
2023/08/27 00:27:16;;;;;;;9.73;6.63;;;17.20;99.90;;;;;;5097904;28;20214;-77
2023/08/27 00:29:42;;;;;;;11.05;7.07;;;17.10;99.90;;;;;;5047077;28;20044;-78
2023/08/27 08:22:48;;;;;;;5.22;1.40;;;19.10;99.90;;;;;;5703887;23;20082;-76
2023/08/27 08:25:14;;;;;;;2.45;1.20;;;19.30;99.90;;;;;;4970481;28;20031;-75
2023/08/27 08:27:40;;;;;;;2.40;1.27;;;19.40;99.90;;;;;;4964351;29;20082;-75
2023/08/27 08:30:07;;;;;;;2.40;0.90;;;19.60;99.90;;;;;;4948093;29;20067;-74
2023/08/27 08:32:33;;;;;;;2.92;1.00;;;19.80;99.90;;;;;;4961601;29;20032;-77
2023/08/27 08:34:58;;;;;;;2.47;1.00;;;19.90;99.90;;;;;;4948062;29;20035;-77
2023/08/27 08:37:25;;;;;;;2.13;0.80;;;20.10;99.90;;;;;;4947917;29;20032;-74
2023/08/27 08:39:51;;;;;;;2.35;0.90;;;20.10;99.90;;;;;;4957568;29;20035;-76
2023/08/27 08:42:38;;;;;;;2.55;1.05;;;20.20;99.90;;;;;;4952221;29;20118;-74
2023/08/27 08:45:23;;;;;;;2.00;0.83;;;20.20;99.90;;;;;;4948010;29;20040;-76
2023/08/27 08:47:53;;;;;;;4.13;0.80;;;20.20;99.90;;;;;;4947558;29;20042;-76
2023/08/27 08:50:21;;;;;;;4.45;1.27;;;20.20;99.90;;;;;;4930967;29;20063;-76
2023/08/27 08:52:49;;;;;;;3.90;0.95;;;20.40;99.90;;;;;;4947145;29;20067;-76
2023/08/27 08:55:22;;;;;;;3.97;1.10;;;20.60;99.90;;;;;;4947566;29;20074;-75
2023/08/27 08:57:54;;;;;;;2.47;1.02;;;20.90;99.90;;;;;;4961464;29;20168;-77
2023/08/27 09:00:21;;;;;;;2.78;1.00;;;20.80;99.90;;;;;;4947428;29;20437;-76
2023/08/27 09:02:47;;;;;;;2.22;0.90;;;20.90;99.90;;;;;;4946782;29;20047;-75
2023/08/27 09:05:16;;;;;;;1.77;0.70;;;20.90;99.90;;;;;;4947371;29;20217;-75
2023/08/27 09:07:44;;;;;;;2.30;0.90;;;20.70;99.90;;;;;;4914516;29;20140;-74
2023/08/27 09:10:11;;;;;;;2.13;0.88;;;20.60;99.90;;;;;;4947265;29;20036;-74
2023/08/27 09:12:41;;;;;;;1.58;0.75;;;20.60;99.90;;;;;;4946716;29;20039;-73
2023/08/27 09:15:10;;;;;;;1.73;0.60;;;20.50;99.90;;;;;;4952658;29;20377;-76
2023/08/27 09:17:37;;;;;;;2.20;0.90;;;20.50;99.90;;;;;;4946473;29;20042;-72
2023/08/27 09:20:04;;;;;;;3.70;0.95;;;20.40;99.90;;;;;;4915134;29;20044;-75
2023/08/27 09:22:31;;;;;;;3.25;1.10;;;20.50;99.90;;;;;;4915356;29;20024;-73
2023/08/27 09:24:57;;;;;;;2.80;0.93;;;20.50;99.90;;;;;;4911771;29;20040;-73
2023/08/27 09:27:24;;;;;;;2.42;1.00;;;20.70;99.90;;;;;;4910760;29;20187;-73
2023/08/27 09:29:51;;;;;;;2.17;0.82;;;20.50;99.90;;;;;;4908447;29;20020;-76
2023/08/27 09:32:22;;;;;;;3.60;1.00;;;20.70;99.90;;;;;;4890300;29;20041;-75
2023/08/27 09:34:48;;;;;;;2.08;0.90;;;21.00;99.90;;;;;;4890268;29;20311;-74
2023/08/27 09:37:15;;;;;;;2.30;1.00;;;21.40;99.90;;;;;;4893631;29;20032;-74
2023/08/27 09:39:44;;;;;;;2.20;0.90;;;21.60;99.90;;;;;;4906246;29;20028;-74
2023/08/27 09:42:13;;;;;;;2.67;0.90;;;22.00;99.90;;;;;;4908760;29;20097;-73
2023/08/27 09:44:39;;;;;;;3.35;0.80;;;22.00;99.90;;;;;;4896588;29;20219;-74
2023/08/27 09:47:06;;;;;;;4.13;0.93;;;22.20;99.90;;;;;;4897072;29;20049;-75
2023/08/27 09:49:31;;;;;;;2.97;0.80;;;22.20;99.90;;;;;;4890541;29;20047;-74
2023/08/27 09:51:59;;;;;;;1.65;0.75;;;22.30;99.70;;;;;;4889938;29;20045;-76
2023/08/27 09:54:29;;;;;;;1.90;0.77;;;22.70;98.60;;;;;;4889676;29;20031;-75
2023/08/27 09:56:59;;;;;;;2.67;0.80;;;22.70;98.50;;;;;;4889251;29;20327;-76
2023/08/27 09:59:26;;;;;;;2.25;0.90;;;22.90;98.30;;;;;;4902842;29;20393;-75
2023/08/27 10:01:53;;;;;;;2.85;0.95;;;23.10;97.80;;;;;;4907882;29;20143;-75
2023/08/27 10:04:20;;;;;;;2.22;1.00;;;22.90;97.20;;;;;;4908375;29;20056;-74
2023/08/27 10:06:46;;;;;;;1.90;0.98;;;22.60;97.70;;;;;;4907842;29;20110;-75
2023/08/27 10:09:12;;;;;;;2.13;0.70;;;22.80;98.00;;;;;;4908098;29;20041;-75
2023/08/27 10:11:40;;;;;;;1.70;0.80;;;22.70;97.00;;;;;;4907409;29;20101;-76
2023/08/27 10:14:06;;;;;;;2.00;0.80;;;22.60;97.70;;;;;;4908395;29;20264;-77
2023/08/27 10:16:36;;;;;;;1.83;0.77;;;22.80;97.50;;;;;;4908286;29;20081;-75
2023/08/27 10:19:04;;;;;;;3.58;0.93;;;22.80;97.40;;;;;;4891457;29;20443;-74
2023/08/27 10:21:30;;;;;;;;;;;23.10;96.80;;;;;;4907357;29;20088;-76
2023/08/27 10:23:56;;;;;;;2.47;1.00;;;23.00;96.40;;;;;;4907605;29;20177;-74
2023/08/27 10:26:26;;;;;;;3.75;0.90;;;23.40;96.40;;;;;;4908064;29;20333;-75
2023/08/27 10:28:53;;;;;;;2.33;0.90;;;23.90;95.40;;;;;;4906118;29;20032;-78
2023/08/27 10:31:19;;;;;;;2.83;1.10;;;23.80;94.70;;;;;;4907662;29;20039;-78
2023/08/27 10:33:45;;;;;;;1.92;0.90;;;23.80;95.30;;;;;;4906248;29;20044;-77
2023/08/27 10:36:18;;;;;;;2.53;0.90;;;23.70;94.90;;;;;;4907632;29;20036;-77
2023/08/27 10:38:46;;;;;;;3.10;0.93;;;23.70;94.10;;;;;;4907466;29;20041;-76
2023/08/27 10:41:17;;;;;;;1.95;0.85;;;24.00;93.20;;;;;;4907066;29;20036;-76
2023/08/27 10:43:42;;;;;;;3.55;1.00;;;24.10;93.00;;;;;;4907424;29;20029;-77
2023/08/27 10:46:16;;;;;;;4.65;0.90;;;23.90;92.40;;;;;;4906676;29;20218;-77
2023/08/27 10:48:48;;;;;;;3.67;0.65;;;24.10;92.30;;;;;;4907134;29;20028;-78
2023/08/27 10:51:15;;;;;;;3.75;1.35;;;24.10;92.60;;;;;;4906390;29;20195;-77
2023/08/27 10:53:55;;;;;;;3.22;1.08;;;24.20;92.10;;;;;;4905732;29;20044;-74
2023/08/27 10:56:44;;;;;;;2.25;1.10;;;24.20;91.80;;;;;;4907928;29;20056;-76
2023/08/27 10:59:25;;;;;;;1.92;0.90;;;24.10;92.50;;;;;;4906039;29;20047;-76
2023/08/27 11:01:53;;;;;;;4.93;1.00;;;24.00;92.90;;;;;;4907044;29;20044;-75
2023/08/27 11:04:19;;;;;;;;;;;24.10;91.80;;;;;;4908281;29;20024;-76
2023/08/27 11:06:48;;;;;;;2.15;0.90;;;23.90;91.10;;;;;;4906570;29;20212;-77
2023/08/27 11:09:25;;;;;;;2.55;0.90;;;23.80;91.00;;;;;;4907352;29;20063;-75
2023/08/27 11:11:55;;;;;;;2.42;0.90;;;23.70;92.30;;;;;;4906429;29;20058;-76
2023/08/27 11:14:25;;;;;;;2.65;1.20;;;24.00;92.50;;;;;;4907141;29;20040;-74
2023/08/27 11:17:05;;;;;;;2.10;0.90;;;24.20;92.40;;;;;;4906814;29;20095;-75
2023/08/27 11:19:35;;;;;;;3.90;1.52;;;24.20;91.00;;;;;;4907206;29;20327;-75
2023/08/27 11:22:14;;;;;;;3.47;1.10;;;24.20;91.50;;;;;;4906646;29;20322;-76
2023/08/27 11:24:43;;;;;;;2.42;1.30;;;24.10;92.40;;;;;;4906890;29;20048;-75
2023/08/27 11:27:09;;;;;;;2.97;1.27;;;24.30;93.30;;;;;;4907368;29;20382;-76
2023/08/27 11:29:41;;;;;;;3.77;1.27;;;24.40;94.00;;;;;;4906947;29;20029;-76
2023/08/27 11:32:08;;;;;;;3.13;1.20;;;24.10;93.10;;;;;;4907308;29;20401;-77
2023/08/27 11:34:38;;;;;;;4.35;1.40;;;24.40;92.90;;;;;;4907285;29;20077;-75
2023/08/27 11:37:05;;;;;;;3.15;1.17;;;24.40;92.60;;;;;;4906087;29;20374;-76
2023/08/27 11:39:32;;;;;;;3.13;1.40;;;24.20;91.90;;;;;;4906023;29;20096;-76
2023/08/27 11:41:58;;;;;;;3.40;1.40;;;24.10;92.50;;;;;;4906786;29;20133;-77
2023/08/27 11:44:24;;;;;;;3.38;1.40;;;24.20;92.90;;;;;;4906775;29;20058;-77
2023/08/27 11:46:51;;;;;;;2.95;1.60;;;24.10;93.10;;;;;;4905668;29;20075;-77
2023/08/27 11:49:28;;;;;;;2.63;1.50;;;23.90;93.40;;;;;;4906154;29;20055;-77
2023/08/27 11:51:56;;;;;;;2.58;1.40;;;24.00;93.60;;;;;;4905211;29;20044;-77
2023/08/27 11:54:24;;;;;;;3.20;1.33;;;24.10;93.70;;;;;;4907169;29;20047;-76
2023/08/27 11:56:51;;;;;;;4.05;1.65;;;24.10;93.10;;;;;;4906301;29;20087;-77
2023/08/27 11:59:17;;;;;;;2.83;1.58;;;24.00;92.90;;;;;;4894023;29;20036;-75
2023/08/27 12:01:46;;;;;;;2.92;1.48;;;24.10;92.80;;;;;;4886738;29;20051;-77
2023/08/27 12:04:12;;;;;;;2.80;1.30;;;24.20;92.90;;;;;;4887134;29;20337;-75
2023/08/27 12:06:49;;;;;;;3.33;1.35;;;24.10;92.80;;;;;;4888355;29;20306;-76
2023/08/27 12:09:29;;;;;;;3.13;1.35;;;24.30;92.90;;;;;;4888086;29;20104;-75
2023/08/27 12:12:00;;;;;;;3.78;1.23;;;24.60;92.60;;;;;;4887382;29;20098;-76
2023/08/27 12:14:26;;;;;;;2.40;1.17;;;24.60;92.00;;;;;;4888338;29;20040;-76
2023/08/27 12:16:53;;;;;;;3.80;1.40;;;24.80;91.90;;;;;;4886663;29;20029;-76
2023/08/27 12:19:23;;;;;;;3.78;1.35;;;24.60;91.20;;;;;;4891368;29;20045;-77
2023/08/27 12:21:51;;;;;;;4.00;1.60;;;24.70;91.50;;;;;;4891161;29;20029;-75
2023/08/27 12:24:34;;;;;;;2.70;1.15;;;24.60;91.50;;;;;;4891011;29;20439;-75
2023/08/27 12:27:04;;;;;;;2.83;1.20;;;24.70;91.90;;;;;;4889975;29;20089;-77
2023/08/27 12:29:32;;;;;;;4.03;1.40;;;24.50;91.70;;;;;;4890463;29;20041;-77
2023/08/27 12:32:09;;;;;;;3.90;1.30;;;24.60;92.00;;;;;;4903210;29;20087;-77
2023/08/27 12:34:36;;;;;;;2.50;1.27;;;24.60;91.90;;;;;;4890407;29;20434;-76
2023/08/27 12:37:03;;;;;;;2.63;1.23;;;24.70;91.90;;;;;;4890583;29;20093;-75
2023/08/27 12:39:29;;;;;;;3.63;1.33;;;24.60;92.00;;;;;;4874403;29;20044;-76
2023/08/27 12:41:55;;;;;;;3.25;1.95;;;24.60;91.10;;;;;;4890685;29;20090;-75
2023/08/27 12:44:21;;;;;;;4.95;1.50;;;24.70;91.40;;;;;;4889941;29;20044;-76
2023/08/27 12:46:50;;;;;;;3.78;1.45;;;24.80;91.00;;;;;;4905150;29;20040;-76
2023/08/27 12:49:22;;;;;;;2.60;1.20;;;24.80;91.80;;;;;;4905600;29;20040;-76
2023/08/27 12:51:48;;;;;;;5.47;1.50;;;24.90;90.10;;;;;;4889442;29;20309;-74
2023/08/27 12:54:14;;;;;;;3.80;1.50;;;24.90;90.10;;;;;;4891051;29;20025;-76
2023/08/27 12:56:41;;;;;;;2.80;1.25;;;25.00;89.70;;;;;;4905417;29;20226;-76
2023/08/27 12:59:08;;;;;;;2.65;1.08;;;25.00;89.20;;;;;;4890582;29;20048;-76
2023/08/27 13:01:34;;;;;;;3.20;1.40;;;24.80;90.00;;;;;;4905455;29;20041;-77
2023/08/27 13:04:00;;;;;;;4.07;1.52;;;24.90;91.30;;;;;;4890247;29;20033;-76
2023/08/27 13:06:26;;;;;;;3.67;1.20;;;25.10;90.30;;;;;;4890593;29;20041;-76
2023/08/27 13:08:52;;;;;;;4.38;1.50;;;25.00;89.20;;;;;;4904344;29;20077;-76
2023/08/27 13:11:18;;;;;;;4.80;1.25;;;24.90;89.90;;;;;;4904854;29;20041;-77
2023/08/27 13:13:44;;;;;;;3.00;1.50;;;24.70;90.30;;;;;;4890554;29;20041;-77
2023/08/27 13:16:10;;;;;;;3.35;1.48;;;24.80;89.80;;;;;;4890281;29;20041;-74
2023/08/27 13:18:36;;;;;;;2.72;1.30;;;24.70;90.10;;;;;;4889222;29;20073;-77
2023/08/27 13:21:02;;;;;;;2.58;1.20;;;25.10;89.70;;;;;;4888995;29;20044;-75
2023/08/27 13:23:27;;;;;;;2.22;1.00;;;25.30;87.50;;;;;;4890229;29;20068;-77
2023/08/27 13:25:53;;;;;;;4.18;1.13;;;25.40;87.20;;;;;;4888666;29;20032;-78
2023/08/27 13:28:20;;;;;;;3.08;1.00;;;25.10;86.50;;;;;;4890350;29;20363;-76
2023/08/27 13:30:46;;;;;;;2.25;0.90;;;25.40;87.40;;;;;;4896839;29;20050;-77
2023/08/27 13:33:12;;;;;;;2.55;1.00;;;25.50;87.40;;;;;;4908713;29;20032;-77
2023/08/27 13:35:38;;;;;;;2.83;1.00;;;25.60;86.50;;;;;;4907958;29;20040;-75
2023/08/27 13:38:04;;;;;;;2.00;1.00;;;25.50;86.50;;;;;;4908154;29;20064;-77
2023/08/27 13:40:29;;;;;;;3.60;1.35;;;25.30;87.00;;;;;;4908701;29;20036;-74
2023/08/27 13:42:56;;;;;;;3.10;1.13;;;25.10;86.70;;;;;;4908310;29;20319;-74
2023/08/27 13:45:22;;;;;;;3.03;1.27;;;24.70;88.70;;;;;;4908752;29;20025;-75
2023/08/27 13:47:49;;;;;;;2.40;1.20;;;24.50;90.00;;;;;;4908056;29;20032;-77
2023/08/27 13:50:19;;;;;;;2.78;1.17;;;24.40;89.00;;;;;;4908881;29;20081;-77
2023/08/27 13:52:45;;;;;;;3.35;1.35;;;24.10;89.40;;;;;;4908554;29;20044;-76
2023/08/27 13:55:11;;;;;;;2.70;1.10;;;23.90;89.80;;;;;;4908446;29;20386;-77
2023/08/27 13:57:37;;;;;;;2.83;1.23;;;23.70;88.80;;;;;;4908862;29;20032;-76
2023/08/27 14:00:04;;;;;;;3.28;1.17;;;23.50;90.30;;;;;;4890508;29;20064;-74
2023/08/27 14:02:31;;;;;;;4.37;1.40;;;23.40;90.20;;;;;;4899365;29;20064;-77
2023/08/27 14:04:57;;;;;;;3.00;1.00;;;23.10;90.80;;;;;;4892314;29;20437;-76
2023/08/27 14:07:23;;;;;;;2.25;1.00;;;23.00;90.90;;;;;;4907299;29;20088;-76
2023/08/27 14:09:49;;;;;;;1.70;0.88;;;23.00;92.70;;;;;;4890492;29;20025;-75
2023/08/27 14:12:15;;;;;;;2.80;1.10;;;23.00;91.50;;;;;;4893702;29;20222;-74
2023/08/27 14:14:41;;;;;;;3.35;1.05;;;23.00;92.00;;;;;;4895842;29;20041;-76
2023/08/27 14:17:07;;;;;;;3.28;1.35;;;22.80;93.10;;;;;;4891772;29;20036;-76
2023/08/27 14:19:33;;;;;;;2.45;1.20;;;22.60;93.60;;;;;;4906543;29;20180;-74
2023/08/27 14:21:59;;;;;;;3.83;1.08;;;22.50;93.60;;;;;;4907617;29;20088;-74
2023/08/27 14:24:25;;;;;;;2.92;1.00;;;22.00;94.60;;;;;;4907828;29;20107;-75
2023/08/27 14:26:51;;;;;;;2.58;1.02;;;21.00;97.40;;;;;;4907780;29;20028;-76
2023/08/27 14:29:16;;;;;;;4.35;1.40;;;19.60;99.60;;;;;;4908462;29;20346;-76
2023/08/27 14:31:42;;;;;;;1.95;1.00;;;18.50;99.90;;;;;;4893767;29;20283;-75
2023/08/27 14:34:09;;;;;;;3.60;1.70;;;17.80;99.90;;;;;;4888960;29;20378;-75
2023/08/27 14:36:35;;;;;;;2.15;1.20;;;17.30;99.90;;;;;;4906097;29;20029;-74
2023/08/27 14:39:02;;;;;;;6.78;1.38;;;17.00;99.90;;;;;;4907870;29;20048;-76
2023/08/27 14:41:30;;;;;;;3.17;1.67;;;16.90;99.90;;;;;;4907641;29;20308;-74
2023/08/27 14:43:56;;;;;;;;;;;16.90;99.90;;;;;;4908126;29;20036;-75
2023/08/27 14:46:25;;;;;;;3.10;1.58;;;16.80;99.90;;;;;;4907702;29;20240;-73
2023/08/27 14:48:50;;;;;;;;;;;16.90;99.90;;;;;;4907866;29;20100;-74
2023/08/27 14:51:17;;;;;;;3.65;1.98;;;16.90;99.90;;;;;;4907408;29;20216;-75
2023/08/27 14:53:43;;;;;;;4.40;2.10;;;16.90;99.90;;;;;;4907834;29;20088;-74
2023/08/27 14:56:10;;;;;;;5.95;2.38;;;17.00;99.90;;;;;;4907111;29;20241;-75
2023/08/27 14:58:36;;;;;;;3.03;1.90;;;17.10;99.90;;;;;;4907374;29;20037;-75
2023/08/27 15:01:02;;;;;;;4.82;2.30;;;17.10;99.90;;;;;;4903394;29;20099;-74
2023/08/27 15:03:29;;;;;;;3.80;2.17;;;17.10;99.90;;;;;;4907847;29;20028;-75
2023/08/27 15:05:54;;;;;;;5.95;2.58;;;17.20;99.90;;;;;;4907223;29;20103;-75
2023/08/27 15:08:20;;;;;;;4.20;2.83;;;17.20;99.90;;;;;;4907965;29;20222;-75
2023/08/27 15:10:46;;;;;;;5.28;2.03;;;17.20;99.90;;;;;;4890740;29;20207;-74
2023/08/27 15:13:11;;;;;;;4.90;2.22;;;17.30;99.90;;;;;;4888277;29;20036;-75
2023/08/27 15:15:38;;;;;;;4.97;2.38;;;17.30;99.90;;;;;;4888514;29;20337;-74
2023/08/27 15:18:04;;;;;;;4.55;2.20;;;17.40;99.90;;;;;;4887960;29;20323;-74
2023/08/27 15:20:30;;;;;;;4.18;2.20;;;17.40;99.90;;;;;;4889054;29;20037;-73
2023/08/27 15:22:56;;;;;;;4.40;1.90;;;17.50;99.90;;;;;;4902331;29;20094;-74
2023/08/27 15:25:23;;;;;;;3.95;1.80;;;17.50;99.90;;;;;;4888480;29;20334;-74
2023/08/27 15:27:49;;;;;;;6.57;1.98;;;17.60;99.90;;;;;;4888709;29;20060;-74
2023/08/27 15:30:14;;;;;;;3.83;1.77;;;17.60;99.90;;;;;;4887998;29;20029;-74
2023/08/27 15:32:40;;;;;;;3.50;1.55;;;17.50;99.90;;;;;;4888357;29;20211;-73
2023/08/27 15:35:08;;;;;;;5.15;1.83;;;17.60;99.90;;;;;;4889356;29;20073;-73
2023/08/27 15:37:34;;;;;;;3.00;1.80;;;17.70;99.90;;;;;;4888856;29;20103;-75
2023/08/27 15:40:00;;;;;;;4.22;2.15;;;17.70;99.90;;;;;;4897589;29;20077;-75
2023/08/27 15:42:27;;;;;;;3.90;1.98;;;17.80;99.90;;;;;;4904102;29;20111;-75
2023/08/27 15:44:54;;;;;;;4.27;1.90;;;17.80;99.90;;;;;;4887769;29;20041;-74
2023/08/27 15:47:20;;;;;;;3.95;1.70;;;17.70;99.90;;;;;;4888103;29;20441;-74
2023/08/27 15:49:46;;;;;;;3.05;1.42;;;17.60;99.90;;;;;;4888515;29;20041;-75
2023/08/27 15:52:12;;;;;;;5.70;2.05;;;17.60;99.90;;;;;;4897672;29;20108;-76
2023/08/27 15:54:38;;;;;;;4.20;2.08;;;17.50;99.90;;;;;;4910793;29;20032;-74
2023/08/27 15:57:05;;;;;;;3.10;1.95;;;17.60;99.90;;;;;;4908980;29;20104;-76
2023/08/27 15:59:31;;;;;;;4.00;1.73;;;17.60;99.90;;;;;;4910590;29;20036;-75
2023/08/27 16:01:58;;;;;;;4.88;2.10;;;17.60;99.90;;;;;;4910272;29;20222;-73
2023/08/27 16:04:23;;;;;;;3.50;1.92;;;17.60;99.90;;;;;;4909689;29;20037;-75
2023/08/27 16:06:49;;;;;;;4.72;2.13;;;17.50;99.90;;;;;;4910817;29;20042;-75
2023/08/27 16:09:15;;;;;;;4.35;2.00;;;17.50;99.90;;;;;;4905986;29;20036;-76
2023/08/27 16:11:41;;;;;;;5.10;2.03;;;17.50;99.90;;;;;;4891785;29;20040;-74
2023/08/27 16:14:07;;;;;;;3.97;1.77;;;17.50;99.90;;;;;;4890887;29;20040;-74
2023/08/27 16:16:32;;;;;;;4.13;2.00;;;17.50;99.90;;;;;;4891952;29;20100;-74
2023/08/27 16:18:59;;;;;;;3.25;1.85;;;17.60;99.90;;;;;;4891332;29;20303;-75
2023/08/27 16:21:25;;;;;;;3.35;1.95;;;17.60;99.90;;;;;;4890800;29;20030;-74
2023/08/27 16:23:51;;;;;;;4.13;2.20;;;17.60;99.90;;;;;;4891277;29;20115;-74
2023/08/27 16:26:17;;;;;;;4.78;2.00;;;17.60;99.90;;;;;;4890169;29;20029;-75
2023/08/27 16:28:43;;;;;;;7.05;2.28;;;17.60;99.90;;;;;;4891147;29;20037;-75
2023/08/27 16:31:19;;;;;;;4.53;1.95;;;17.60;99.90;;;;;;4901259;29;20096;-74
2023/08/27 16:33:45;;;;;;;4.45;2.13;;;17.70;99.90;;;;;;4908141;29;20036;-74
2023/08/27 16:36:11;;;;;;;4.47;1.95;;;17.80;99.90;;;;;;4901154;29;20051;-74
2023/08/27 16:38:36;;;;;;;4.60;2.10;;;17.80;99.90;;;;;;4901559;29;20315;-73
2023/08/27 16:41:02;;;;;;;5.68;2.10;;;17.90;99.90;;;;;;4909287;29;20056;-74
2023/08/27 16:43:28;;;;;;;5.07;2.17;;;18.00;99.90;;;;;;4894888;29;20037;-74
2023/08/27 16:45:55;;;;;;;5.88;1.73;;;18.00;99.90;;;;;;4891157;29;20041;-73
2023/08/27 16:48:24;;;;;;;6.15;1.73;;;18.00;99.90;;;;;;4891124;29;20227;-73
2023/08/27 16:50:50;;;;;;;4.95;1.90;;;17.90;99.90;;;;;;4896826;29;20099;-74
2023/08/27 16:53:16;;;;;;;4.13;1.83;;;18.00;99.90;;;;;;4908024;29;20244;-74
2023/08/27 16:55:46;;;;;;;4.60;2.17;;;18.00;99.90;;;;;;4909696;29;20214;-74
2023/08/27 16:58:12;;;;;;;3.85;1.90;;;18.10;99.90;;;;;;4909101;29;20163;-74
2023/08/27 17:00:38;;;;;;;4.85;1.83;;;18.10;99.90;;;;;;4909345;29;20063;-74
2023/08/27 17:03:14;;;;;;;3.85;2.30;;;18.10;99.90;;;;;;4908950;29;20088;-74
2023/08/27 17:05:45;;;;;;;5.10;2.03;;;18.00;99.90;;;;;;4909361;29;20056;-74
2023/08/27 17:08:11;;;;;;;4.18;1.80;;;18.00;99.90;;;;;;4900645;29;20339;-74
2023/08/27 17:10:38;;;;;;;4.68;1.90;;;18.00;99.90;;;;;;4906494;29;20127;-74
2023/08/27 17:13:06;;;;;;;3.75;1.90;;;18.00;99.90;;;;;;4909147;29;20334;-73
2023/08/27 17:15:32;;;;;;;3.75;2.05;;;18.00;99.90;;;;;;4908318;29;20037;-74
2023/08/27 17:17:58;;;;;;;5.38;2.38;;;18.00;99.90;;;;;;4909036;29;20040;-74
2023/08/27 17:20:27;;;;;;;4.00;2.05;;;18.00;99.90;;;;;;4909487;29;20071;-74
2023/08/27 17:22:52;;;;;;;3.97;1.98;;;18.00;99.90;;;;;;4908692;29;20049;-73
2023/08/27 17:25:18;;;;;;;7.07;2.10;;;18.00;99.90;;;;;;4908540;29;20551;-74
2023/08/27 17:27:44;;;;;;;4.05;2.33;;;18.00;99.90;;;;;;4907218;29;20036;-74
2023/08/27 17:30:10;;;;;;;6.28;2.60;;;17.90;99.90;;;;;;4892244;29;20039;-74
2023/08/27 17:32:35;;;;;;;7.25;2.22;;;17.80;99.90;;;;;;4909070;29;20138;-73
2023/08/27 17:35:04;;;;;;;3.85;2.00;;;17.80;99.90;;;;;;4908570;29;20025;-75
2023/08/27 17:37:30;;;;;;;;;;;17.70;99.90;;;;;;4908491;29;20036;-76
2023/08/27 17:39:58;;;;;;;3.67;2.08;;;17.60;99.90;;;;;;4908794;29;19915;-75
2023/08/27 17:42:24;;;;;;;4.80;1.95;;;17.60;99.90;;;;;;4898585;29;20341;-76
2023/08/27 17:44:50;;;;;;;3.83;1.98;;;17.60;99.90;;;;;;4890196;29;20037;-76
2023/08/27 17:47:37;;;;;;;4.93;2.30;;;17.60;99.90;;;;;;4888717;29;20043;-75
2023/08/27 17:50:13;;;;;;;3.60;1.70;;;17.60;99.90;;;;;;4907600;29;20028;-77
2023/08/27 17:53:10;;;;;;;2.90;1.60;;;17.60;99.90;;;;;;4900985;29;20065;-76
2023/08/27 17:55:36;;;;;;;4.70;1.55;;;17.60;99.90;;;;;;4889913;29;20028;-77
2023/08/27 17:58:10;;;;;;;4.28;2.35;;;17.50;99.90;;;;;;4888210;29;20044;-78
2023/08/27 18:00:35;;;;;;;3.83;2.10;;;17.50;99.90;;;;;;4888802;29;20029;-75
2023/08/27 18:03:05;;;;;;;4.90;2.05;;;17.40;99.90;;;;;;4889419;29;20264;-77
2023/08/27 18:05:30;;;;;;;3.63;2.05;;;17.40;99.90;;;;;;4889729;29;20048;-76
2023/08/27 18:07:56;;;;;;;6.10;2.10;;;17.30;99.90;;;;;;4889862;29;20040;-77
2023/08/27 18:10:22;;;;;;;4.05;1.52;;;17.20;99.90;;;;;;4903322;29;20036;-78
2023/08/27 18:12:47;;;;;;;4.82;2.10;;;17.20;99.90;;;;;;4908594;29;20045;-76
2023/08/27 18:15:13;;;;;;;3.88;1.60;;;17.20;99.90;;;;;;4907360;29;20129;-77
2023/08/27 18:17:42;;;;;;;4.75;2.17;;;17.20;99.90;;;;;;4907421;29;20036;-78
2023/08/27 18:20:08;;;;;;;;;;;17.30;99.90;;;;;;4908392;29;20096;-78
2023/08/27 18:22:35;;;;;;;2.47;1.38;;;17.20;99.90;;;;;;4897210;29;19918;-78
2023/08/27 18:25:00;;;;;;;3.92;1.70;;;17.20;99.90;;;;;;4889750;29;20064;-77
2023/08/27 18:27:26;;;;;;;4.80;1.73;;;17.20;99.90;;;;;;4888731;29;20092;-76
2023/08/27 18:29:52;;;;;;;4.10;2.00;;;17.30;99.90;;;;;;4908074;29;20040;-75
2023/08/27 18:32:17;;;;;;;4.38;1.90;;;17.30;99.90;;;;;;4893928;29;20041;-76
2023/08/27 18:34:43;;;;;;;4.85;1.80;;;17.30;99.90;;;;;;4888591;29;20256;-75
2023/08/27 18:37:09;;;;;;;4.10;1.90;;;17.20;99.90;;;;;;4888638;29;20252;-76
2023/08/27 18:39:34;;;;;;;3.35;2.03;;;17.20;99.90;;;;;;4889654;29;20044;-75
2023/08/27 18:42:04;;;;;;;5.20;2.17;;;17.20;99.90;;;;;;4903716;29;20096;-75
2023/08/27 18:44:29;;;;;;;4.18;2.20;;;17.20;99.90;;;;;;4888163;29;20041;-76
2023/08/27 18:46:55;;;;;;;4.28;2.15;;;17.10;99.90;;;;;;4888229;29;20041;-76
2023/08/27 18:49:21;;;;;;;4.60;2.20;;;17.10;99.90;;;;;;4888932;29;20121;-75
2023/08/27 18:51:46;;;;;;;4.00;2.33;;;17.10;99.90;;;;;;4889029;29;20281;-77
2023/08/27 18:54:13;;;;;;;4.50;1.80;;;17.10;99.90;;;;;;4888742;29;20057;-75
2023/08/27 18:56:38;;;;;;;4.85;2.58;;;17.00;99.90;;;;;;4898083;29;20013;-75
2023/08/27 18:59:04;;;;;;;3.67;2.08;;;17.00;99.90;;;;;;4907304;29;20206;-76
2023/08/27 19:01:30;;;;;;;4.75;2.05;;;16.90;99.90;;;;;;4907814;29;20092;-76
2023/08/27 19:03:55;;;;;;;3.85;2.00;;;16.90;99.90;;;;;;4907701;29;20028;-76
2023/08/27 19:06:21;;;;;;;4.03;1.70;;;16.90;99.90;;;;;;4907269;29;20029;-76
2023/08/27 19:08:49;;;;;;;3.92;2.05;;;16.90;99.90;;;;;;4907680;29;20039;-75
2023/08/27 19:11:15;;;;;;;4.60;1.90;;;16.90;99.90;;;;;;4907123;29;20040;-75
2023/08/27 19:13:43;;;;;;;5.57;2.00;;;16.80;99.90;;;;;;4907942;29;20084;-76
2023/08/27 19:16:09;;;;;;;3.75;1.80;;;16.90;99.90;;;;;;4907075;29;20036;-76
2023/08/27 19:18:37;;;;;;;4.45;1.60;;;16.80;99.90;;;;;;4907853;29;20033;-76
2023/08/27 19:21:03;;;;;;;4.03;1.83;;;16.80;99.90;;;;;;4907706;29;20366;-75
2023/08/27 19:23:29;;;;;;;5.43;2.10;;;16.70;99.90;;;;;;4906941;29;20052;-76
2023/08/27 19:25:55;;;;;;;3.65;1.55;;;16.70;99.90;;;;;;4907415;29;20040;-77
2023/08/27 19:28:21;;;;;;;4.30;1.70;;;16.70;99.90;;;;;;4904320;29;20037;-76
2023/08/27 19:30:58;;;;;;;5.65;1.70;;;16.70;99.90;;;;;;4899873;29;20108;-77
2023/08/27 19:33:36;;;;;;;3.90;1.95;;;16.60;99.90;;;;;;4910784;29;20036;-77
2023/08/27 19:36:26;;;;;;;5.60;1.90;;;16.60;99.90;;;;;;4909748;29;20032;-76
2023/08/27 19:38:52;;;;;;;3.35;2.03;;;16.60;99.90;;;;;;4911716;29;20310;-77
2023/08/27 19:41:17;;;;;;;4.55;2.05;;;16.50;99.90;;;;;;4910554;29;20080;-77
2023/08/27 19:44:02;;;;;;;4.22;2.10;;;16.50;99.90;;;;;;4892122;29;20017;-77
2023/08/27 19:46:54;;;;;;;4.28;2.10;;;16.50;99.90;;;;;;4896996;29;20371;-77
2023/08/27 19:49:23;;;;;;;6.63;2.10;;;16.40;99.90;;;;;;4891573;29;20145;-76
2023/08/27 19:51:52;;;;;;;3.40;1.83;;;16.40;99.90;;;;;;4892423;29;20033;-84
2023/08/27 19:54:31;;;;;;;3.92;2.00;;;16.40;99.90;;;;;;4907303;29;20081;-78
2023/08/27 19:57:24;;;;;;;3.22;1.60;;;16.40;99.90;;;;;;4896290;29;20074;-81
2023/08/27 19:59:52;;;;;;;3.58;2.10;;;16.40;99.90;;;;;;4892285;29;20021;-80
2023/08/27 20:02:20;;;;;;;3.25;2.00;;;16.40;99.90;;;;;;4891884;29;20307;-77
2023/08/27 20:04:48;;;;;;;4.28;2.10;;;16.40;99.90;;;;;;4906379;29;20072;-77
2023/08/27 20:07:14;;;;;;;3.22;1.90;;;16.40;99.90;;;;;;4890456;29;20048;-77
2023/08/27 20:09:56;;;;;;;4.18;2.20;;;16.40;99.90;;;;;;4905139;29;20036;-77
2023/08/27 20:20:37;;;;;;;4.15;1.83;;;16.30;99.90;;;;;;4859810;29;20033;-76
2023/08/27 20:23:24;;;;;;;2.63;1.45;;;16.30;99.90;;;;;;4846413;29;20269;-77
2023/08/27 20:26:23;;;;;;;3.85;1.75;;;16.30;99.90;;;;;;4861944;29;20033;-76
2023/08/27 20:36:56;;;;;;;4.10;2.00;;;16.20;99.90;;;;;;4844487;29;20050;-77
2023/08/27 20:39:43;;;;;;;4.35;2.25;;;16.10;99.90;;;;;;4870655;29;20342;-77
2023/08/27 20:42:30;;;;;;;4.15;2.00;;;16.10;99.90;;;;;;4871073;29;20398;-78
2023/08/27 20:45:40;;;;;;;4.97;2.10;;;16.10;99.90;;;;;;4857094;29;20415;-78
2023/08/27 20:55:38;;;;;;;3.97;2.33;;;16.00;99.90;;;;;;4927813;29;20047;-76
2023/08/27 20:58:10;;;;;;;;;;;16.00;99.90;;;;;;4910353;29;20123;-77
2023/08/27 21:01:16;;;;;;;4.10;1.98;;;15.90;99.90;;;;;;4909050;29;19955;-77
2023/08/27 21:07:25;;;;;;;4.07;2.30;;;15.90;99.90;;;;;;4890544;29;20100;-77
2023/08/27 21:09:56;;;;;;;5.90;2.38;;;15.90;99.90;;;;;;4900732;29;20024;-75
2023/08/27 21:12:28;;;;;;;4.55;2.40;;;15.90;99.90;;;;;;4908963;29;20083;-76